createdAt,value
2018-08-03T00:00:29.743Z,55.13
2018-08-03T00:01:29.765Z,54.54
2018-08-03T00:02:29.785Z,54.83
2018-08-03T00:03:29.804Z,55.22
2018-08-03T00:04:29.828Z,54.54
2018-08-03T00:05:29.844Z,54.74
2018-08-03T00:06:29.922Z,54.64
2018-08-03T00:07:29.908Z,54.54
2018-08-03T00:08:29.915Z,54.35
2018-08-03T00:09:29.937Z,54.83
2018-08-03T00:10:29.979Z,55.32
2018-08-03T00:11:29.979Z,55.13
2018-08-03T00:12:29.998Z,54.83
2018-08-03T00:13:30.021Z,54.83
2018-08-03T00:14:30.046Z,54.35
2018-08-03T00:15:30.067Z,54.74
2018-08-03T00:16:30.077Z,54.54
2018-08-03T00:17:30.106Z,54.64
2018-08-03T00:18:30.129Z,54.54
2018-08-03T00:19:30.147Z,54.35
2018-08-03T00:20:30.172Z,54.35
2018-08-03T00:21:30.246Z,54.35
2018-08-03T00:22:30.218Z,54.54
2018-08-03T00:23:30.237Z,54.05
2018-08-03T00:24:30.256Z,54.25
2018-08-03T00:25:30.285Z,54.35
2018-08-03T00:26:30.313Z,54.74
2018-08-03T00:27:30.312Z,55.32
2018-08-03T00:28:30.350Z,54.93
2018-08-03T00:29:30.363Z,55.32
2018-08-03T00:30:30.443Z,54.54
2018-08-03T00:31:30.415Z,54.93
2018-08-03T00:32:30.426Z,54.64
2018-08-03T00:33:30.453Z,55.51
2018-08-03T00:34:30.529Z,54.64
2018-08-03T00:35:30.494Z,54.93
2018-08-03T00:36:30.516Z,55.03
2018-08-03T00:37:30.541Z,55.22
2018-08-03T00:38:30.564Z,55.32
2018-08-03T00:39:30.584Z,54.83
2018-08-03T00:40:30.600Z,55.32
2018-08-03T00:41:30.625Z,54.93
2018-08-03T00:42:30.644Z,55.13
2018-08-03T00:43:30.668Z,55.51
2018-08-03T00:44:30.687Z,55.13
2018-08-03T00:45:30.707Z,55.22
2018-08-03T00:46:30.726Z,55.51
2018-08-03T00:47:30.749Z,55.61
2018-08-03T00:48:30.770Z,55.51
2018-08-03T00:49:30.795Z,55.71
2018-08-03T00:50:30.819Z,55.03
2018-08-03T00:51:30.845Z,55.32
2018-08-03T00:52:30.863Z,55.41
2018-08-03T00:53:30.877Z,55.32
2018-08-03T00:54:30.900Z,55.22
2018-08-03T00:55:30.922Z,55.71
2018-08-03T00:56:30.942Z,55.41
2018-08-03T00:57:30.969Z,55.80
2018-08-03T00:58:30.987Z,55.22
2018-08-03T00:59:31.017Z,55.03
2018-08-03T01:00:31.028Z,55.29
2018-08-03T01:01:31.050Z,55.71
2018-08-03T01:02:31.079Z,55.49
2018-08-03T01:03:31.096Z,55.61
2018-08-03T01:04:31.136Z,55.51
2018-08-03T01:05:31.139Z,55.41
2018-08-03T01:06:31.157Z,55.39
2018-08-03T01:07:31.176Z,55.32
2018-08-03T01:08:31.203Z,55.22
2018-08-03T01:09:31.224Z,55.29
2018-08-03T01:10:31.246Z,55.51
2018-08-03T01:11:31.266Z,55.41
2018-08-03T01:12:31.285Z,55.29
2018-08-03T01:13:31.306Z,55.22
2018-08-03T01:14:31.326Z,55.80
2018-08-03T01:15:31.345Z,55.32
2018-08-03T01:16:31.370Z,55.61
2018-08-03T01:17:31.392Z,55.29
2018-08-03T01:18:31.412Z,55.19
2018-08-03T01:19:31.435Z,55.13
2018-08-03T01:20:31.460Z,55.22
2018-08-03T01:21:31.482Z,55.41
2018-08-03T01:22:31.498Z,55.29
2018-08-03T01:23:31.522Z,55.32
2018-08-03T01:24:31.544Z,55.19
2018-08-03T01:25:31.567Z,55.32
2018-08-03T01:26:31.611Z,55.71
2018-08-03T01:27:31.606Z,55.29
2018-08-03T01:28:31.629Z,55.51
2018-08-03T01:29:31.645Z,55.13
2018-08-03T01:30:31.672Z,55.13
2018-08-03T01:31:31.691Z,56.00
2018-08-03T01:32:31.712Z,55.88
2018-08-03T01:33:31.742Z,55.32
2018-08-03T01:34:31.756Z,55.68
2018-08-03T01:35:31.780Z,55.29
2018-08-03T01:36:31.794Z,55.90
2018-08-03T01:37:31.825Z,55.39
2018-08-03T01:38:31.844Z,55.68
2018-08-03T01:39:31.863Z,55.71
2018-08-03T01:40:31.886Z,55.98
2018-08-03T01:41:31.905Z,55.51
2018-08-03T01:42:31.935Z,55.41
2018-08-03T01:43:31.950Z,55.10
2018-08-03T01:44:31.971Z,55.29
2018-08-03T01:45:31.993Z,55.19
2018-08-03T01:46:32.018Z,55.10
2018-08-03T01:47:32.037Z,55.39
2018-08-03T01:48:32.058Z,55.39
2018-08-03T01:49:32.079Z,55.68
2018-08-03T01:50:32.097Z,55.88
2018-08-03T01:51:32.125Z,55.98
2018-08-03T01:52:32.145Z,55.71
2018-08-03T01:53:32.168Z,55.39
2018-08-03T01:54:32.184Z,55.58
2018-08-03T01:55:32.216Z,55.39
2018-08-03T01:56:32.233Z,55.49
2018-08-03T01:57:32.251Z,55.78
2018-08-03T01:58:32.270Z,55.98
2018-08-03T01:59:32.293Z,55.58
2018-08-03T02:00:32.322Z,55.98
2018-08-03T02:01:32.387Z,55.68
2018-08-03T02:02:32.355Z,55.98
2018-08-03T02:03:32.374Z,55.78
2018-08-03T02:04:32.398Z,55.78
2018-08-03T02:05:32.425Z,55.98
2018-08-03T02:06:32.452Z,55.49
2018-08-03T02:07:32.468Z,55.98
2018-08-03T02:08:32.482Z,55.68
2018-08-03T02:09:32.514Z,56.07
2018-08-03T02:10:32.529Z,55.88
2018-08-03T02:11:32.548Z,55.68
2018-08-03T02:12:32.566Z,55.58
2018-08-03T02:13:32.592Z,56.07
2018-08-03T02:14:32.612Z,55.58
2018-08-03T02:15:32.633Z,55.68
2018-08-03T02:16:32.660Z,55.98
2018-08-03T02:17:32.676Z,55.78
2018-08-03T02:18:32.703Z,55.88
2018-08-03T02:19:32.717Z,55.78
2018-08-03T02:20:32.745Z,55.88
2018-08-03T02:21:32.765Z,55.98
2018-08-03T02:22:32.784Z,56.16
2018-08-03T02:23:32.802Z,55.88
2018-08-03T02:24:32.830Z,55.58
2018-08-03T02:25:32.846Z,55.78
2018-08-03T02:26:32.872Z,55.88
2018-08-03T02:27:32.887Z,55.98
2018-08-03T02:28:32.909Z,55.78
2018-08-03T02:29:32.934Z,55.68
2018-08-03T02:30:32.953Z,55.78
2018-08-03T02:31:32.976Z,55.68
2018-08-03T02:32:32.997Z,55.98
2018-08-03T02:33:33.027Z,55.88
2018-08-03T02:34:33.044Z,55.68
2018-08-03T02:35:33.063Z,55.98
2018-08-03T02:36:33.081Z,56.16
2018-08-03T02:37:33.105Z,55.98
2018-08-03T02:38:33.131Z,55.98
2018-08-03T02:39:33.149Z,56.16
2018-08-03T02:40:33.167Z,55.98
2018-08-03T02:41:33.193Z,55.58
2018-08-03T02:42:33.217Z,55.78
2018-08-03T02:43:33.230Z,55.68
2018-08-03T02:44:33.266Z,55.68
2018-08-03T02:45:33.303Z,55.68
2018-08-03T02:46:33.299Z,55.78
2018-08-03T02:47:33.314Z,55.78
2018-08-03T02:48:33.347Z,55.78
2018-08-03T02:49:33.365Z,55.68
2018-08-03T02:50:33.375Z,55.88
2018-08-03T02:51:33.406Z,55.68
2018-08-03T02:52:33.426Z,55.49
2018-08-03T02:53:33.464Z,55.78
2018-08-03T02:54:33.465Z,55.88
2018-08-03T02:55:33.485Z,55.88
2018-08-03T02:56:33.507Z,55.49
2018-08-03T02:57:33.529Z,55.98
2018-08-03T02:58:33.553Z,55.98
2018-08-03T02:59:33.571Z,55.78
2018-08-03T03:00:33.594Z,55.88
2018-08-03T03:01:33.615Z,55.98
2018-08-03T03:02:33.636Z,55.88
2018-08-03T03:03:33.658Z,55.88
2018-08-03T03:04:33.678Z,55.88
2018-08-03T03:05:33.699Z,56.07
2018-08-03T03:06:33.713Z,55.98
2018-08-03T03:07:33.741Z,55.68
2018-08-03T03:08:33.767Z,55.88
2018-08-03T03:09:33.783Z,55.58
2018-08-03T03:10:33.810Z,56.16
2018-08-03T03:11:33.830Z,55.98
2018-08-03T03:12:33.848Z,55.68
2018-08-03T03:13:33.867Z,55.49
2018-08-03T03:14:33.890Z,55.19
2018-08-03T03:15:33.906Z,55.19
2018-08-03T03:16:33.936Z,55.19
2018-08-03T03:17:33.951Z,55.19
2018-08-03T03:18:33.975Z,55.10
2018-08-03T03:19:34.045Z,55.29
2018-08-03T03:20:34.024Z,55.19
2018-08-03T03:21:34.037Z,55.39
2018-08-03T03:22:34.060Z,55.19
2018-08-03T03:23:34.083Z,55.49
2018-08-03T03:24:34.101Z,55.29
2018-08-03T03:25:34.128Z,55.49
2018-08-03T03:26:34.148Z,55.68
2018-08-03T03:27:34.175Z,55.29
2018-08-03T03:28:34.193Z,55.39
2018-08-03T03:29:34.204Z,55.10
2018-08-03T03:30:34.233Z,55.29
2018-08-03T03:31:34.249Z,55.49
2018-08-03T03:32:34.296Z,55.10
2018-08-03T03:33:34.306Z,55.49
2018-08-03T03:34:34.323Z,55.58
2018-08-03T03:35:34.334Z,55.58
2018-08-03T03:36:34.355Z,55.75
2018-08-03T03:37:34.386Z,55.19
2018-08-03T03:38:34.401Z,55.07
2018-08-03T03:39:34.420Z,55.29
2018-08-03T03:40:34.444Z,55.49
2018-08-03T03:41:34.467Z,55.39
2018-08-03T03:42:34.493Z,55.49
2018-08-03T03:43:34.502Z,55.19
2018-08-03T03:44:34.528Z,55.07
2018-08-03T03:45:34.572Z,55.19
2018-08-03T03:46:34.569Z,55.17
2018-08-03T03:47:34.594Z,55.27
2018-08-03T03:48:34.632Z,55.10
2018-08-03T03:49:34.641Z,55.65
2018-08-03T03:50:34.651Z,55.68
2018-08-03T03:51:34.677Z,55.19
2018-08-03T03:52:34.703Z,55.17
2018-08-03T03:53:34.718Z,55.10
2018-08-03T03:54:34.736Z,55.19
2018-08-03T03:55:34.777Z,55.39
2018-08-03T03:56:34.787Z,55.29
2018-08-03T03:57:34.800Z,55.49
2018-08-03T03:58:34.820Z,55.29
2018-08-03T03:59:34.863Z,55.36
2018-08-03T04:00:34.864Z,55.39
2018-08-03T04:01:34.890Z,55.58
2018-08-03T04:02:34.920Z,55.10
2018-08-03T04:03:34.937Z,55.39
2018-08-03T04:04:34.984Z,55.36
2018-08-03T04:05:34.972Z,55.49
2018-08-03T04:06:35.006Z,55.07
2018-08-03T04:07:35.019Z,55.17
2018-08-03T04:08:35.036Z,55.49
2018-08-03T04:09:35.059Z,55.39
2018-08-03T04:10:35.087Z,55.39
2018-08-03T04:11:35.102Z,55.65
2018-08-03T04:12:35.127Z,55.36
2018-08-03T04:13:35.149Z,55.85
2018-08-03T04:14:35.169Z,56.34
2018-08-03T04:15:35.197Z,56.72
2018-08-03T04:16:35.209Z,57.11
2018-08-03T04:17:35.236Z,57.04
2018-08-03T04:18:35.245Z,56.56
2018-08-03T04:19:35.268Z,56.46
2018-08-03T04:20:35.301Z,56.26
2018-08-03T04:21:35.312Z,56.46
2018-08-03T04:22:35.336Z,56.56
2018-08-03T04:23:35.348Z,56.46
2018-08-03T04:24:35.384Z,56.95
2018-08-03T04:25:35.446Z,56.95
2018-08-03T04:26:35.428Z,56.56
2018-08-03T04:27:35.450Z,57.14
2018-08-03T04:28:35.475Z,56.46
2018-08-03T04:29:35.527Z,56.65
2018-08-03T04:30:35.520Z,56.20
2018-08-03T04:31:35.532Z,56.36
2018-08-03T04:32:35.550Z,56.39
2018-08-03T04:33:35.570Z,56.59
2018-08-03T04:34:35.579Z,56.65
2018-08-03T04:35:35.611Z,56.46
2018-08-03T04:36:35.637Z,56.16
2018-08-03T04:37:35.652Z,56.20
2018-08-03T04:38:35.678Z,56.39
2018-08-03T04:39:35.699Z,56.00
2018-08-03T04:40:35.720Z,56.20
2018-08-03T04:41:35.731Z,56.39
2018-08-03T04:42:35.811Z,56.77
2018-08-03T04:43:35.786Z,56.59
2018-08-03T04:44:35.801Z,56.59
2018-08-03T04:45:35.828Z,56.49
2018-08-03T04:46:35.845Z,56.59
2018-08-03T04:47:35.876Z,56.49
2018-08-03T04:48:35.953Z,56.49
2018-08-03T04:49:35.908Z,56.20
2018-08-03T04:50:35.930Z,56.20
2018-08-03T04:51:35.951Z,56.49
2018-08-03T04:52:35.968Z,56.29
2018-08-03T04:53:35.990Z,56.20
2018-08-03T04:54:36.036Z,56.20
2018-08-03T04:55:36.038Z,56.29
2018-08-03T04:56:36.065Z,56.20
2018-08-03T04:57:36.087Z,56.68
2018-08-03T04:58:36.107Z,56.20
2018-08-03T04:59:36.123Z,56.39
2018-08-03T05:00:36.142Z,56.39
2018-08-03T05:01:36.165Z,56.20
2018-08-03T05:02:36.185Z,56.68
2018-08-03T05:03:36.208Z,56.39
2018-08-03T05:04:36.247Z,56.39
2018-08-03T05:05:36.256Z,56.20
2018-08-03T05:06:36.279Z,56.20
2018-08-03T05:07:36.294Z,56.59
2018-08-03T05:08:36.315Z,56.49
2018-08-03T05:09:36.340Z,56.39
2018-08-03T05:10:36.358Z,56.29
2018-08-03T05:11:36.387Z,56.59
2018-08-03T05:12:36.400Z,56.39
2018-08-03T05:13:36.432Z,56.29
2018-08-03T05:14:36.446Z,56.87
2018-08-03T05:15:36.566Z,56.87
2018-08-03T05:16:36.488Z,56.97
2018-08-03T05:17:36.512Z,56.97
2018-08-03T05:18:36.531Z,56.59
2018-08-03T05:19:36.551Z,56.68
2018-08-03T05:20:36.598Z,56.68
2018-08-03T05:21:36.593Z,57.07
2018-08-03T05:22:36.618Z,56.97
2018-08-03T05:23:36.674Z,57.07
2018-08-03T05:24:36.659Z,56.29
2018-08-03T05:25:36.680Z,56.77
2018-08-03T05:26:36.702Z,56.20
2018-08-03T05:27:36.732Z,56.49
2018-08-03T05:28:36.803Z,56.32
2018-08-03T05:29:36.772Z,56.20
2018-08-03T05:30:36.799Z,56.59
2018-08-03T05:31:36.810Z,56.68
2018-08-03T05:32:36.836Z,56.59
2018-08-03T05:33:36.853Z,56.49
2018-08-03T05:34:36.884Z,56.71
2018-08-03T05:35:36.893Z,56.29
2018-08-03T05:36:36.922Z,56.68
2018-08-03T05:37:36.939Z,56.41
2018-08-03T05:38:36.963Z,56.39
2018-08-03T05:39:36.985Z,56.49
2018-08-03T05:40:37.005Z,56.39
2018-08-03T05:41:37.035Z,56.68
2018-08-03T05:42:37.082Z,56.20
2018-08-03T05:43:37.069Z,56.61
2018-08-03T05:44:37.103Z,56.41
2018-08-03T05:45:37.154Z,56.81
2018-08-03T05:46:37.134Z,56.41
2018-08-03T05:47:37.153Z,56.61
2018-08-03T05:48:37.193Z,57.07
2018-08-03T05:49:37.195Z,56.87
2018-08-03T05:50:37.214Z,56.51
2018-08-03T05:51:37.243Z,57.20
2018-08-03T05:52:37.264Z,56.61
2018-08-03T05:53:37.284Z,56.59
2018-08-03T05:54:37.305Z,57.20
2018-08-03T05:55:37.340Z,56.77
2018-08-03T05:56:37.345Z,57.00
2018-08-03T05:57:37.383Z,57.29
2018-08-03T05:58:37.393Z,56.59
2018-08-03T05:59:37.416Z,56.71
2018-08-03T06:00:37.437Z,56.81
2018-08-03T06:01:37.462Z,56.77
2018-08-03T06:02:37.481Z,56.90
2018-08-03T06:03:37.497Z,57.59
2018-08-03T06:04:37.519Z,57.20
2018-08-03T06:05:37.543Z,57.07
2018-08-03T06:06:37.586Z,57.29
2018-08-03T06:07:37.586Z,57.10
2018-08-03T06:08:37.606Z,57.10
2018-08-03T06:09:37.665Z,56.71
2018-08-03T06:10:37.651Z,57.10
2018-08-03T06:11:37.678Z,56.61
2018-08-03T06:12:37.693Z,56.68
2018-08-03T06:13:37.713Z,56.71
2018-08-03T06:14:37.739Z,56.81
2018-08-03T06:15:37.756Z,56.71
2018-08-03T06:16:37.785Z,56.81
2018-08-03T06:17:37.802Z,56.51
2018-08-03T06:18:37.821Z,56.51
2018-08-03T06:19:37.846Z,57.10
2018-08-03T06:20:37.968Z,56.90
2018-08-03T06:21:37.902Z,56.71
2018-08-03T06:22:37.928Z,57.07
2018-08-03T06:23:37.936Z,57.20
2018-08-03T06:24:37.955Z,56.90
2018-08-03T06:25:38.003Z,56.87
2018-08-03T06:26:38.004Z,57.10
2018-08-03T06:27:38.034Z,57.29
2018-08-03T06:28:38.045Z,56.90
2018-08-03T06:29:38.093Z,57.10
2018-08-03T06:30:38.081Z,56.71
2018-08-03T06:31:38.105Z,56.71
2018-08-03T06:32:38.123Z,56.71
2018-08-03T06:33:38.145Z,56.81
2018-08-03T06:34:38.169Z,56.81
2018-08-03T06:35:38.188Z,56.87
2018-08-03T06:36:38.216Z,56.71
2018-08-03T06:37:38.234Z,56.71
2018-08-03T06:38:38.267Z,56.81
2018-08-03T06:39:38.276Z,56.68
2018-08-03T06:40:38.294Z,56.81
2018-08-03T06:41:38.319Z,56.71
2018-08-03T06:42:38.400Z,56.61
2018-08-03T06:43:38.367Z,56.68
2018-08-03T06:44:38.387Z,56.71
2018-08-03T06:45:38.401Z,56.90
2018-08-03T06:46:38.429Z,56.77
2018-08-03T06:47:38.450Z,57.29
2018-08-03T06:48:38.477Z,56.51
2018-08-03T06:49:38.490Z,56.71
2018-08-03T06:50:38.516Z,56.71
2018-08-03T06:51:38.538Z,57.20
2018-08-03T06:52:38.560Z,56.81
2018-08-03T06:53:38.630Z,56.61
2018-08-03T06:54:38.599Z,56.61
2018-08-03T06:55:38.623Z,56.81
2018-08-03T06:56:38.647Z,56.61
2018-08-03T06:57:38.670Z,56.71
2018-08-03T06:58:38.706Z,56.71
2018-08-03T06:59:38.708Z,56.61
2018-08-03T07:00:38.744Z,56.61
2018-08-03T07:01:38.763Z,56.81
2018-08-03T07:02:38.774Z,56.81
2018-08-03T07:03:38.838Z,57.00
2018-08-03T07:04:38.823Z,57.00
2018-08-03T07:05:38.840Z,56.71
2018-08-03T07:06:38.857Z,56.81
2018-08-03T07:07:38.875Z,56.61
2018-08-03T07:08:38.902Z,56.71
2018-08-03T07:09:38.925Z,56.61
2018-08-03T07:10:38.944Z,56.61
2018-08-03T07:11:38.968Z,56.71
2018-08-03T07:12:38.993Z,57.39
2018-08-03T07:13:39.007Z,56.81
2018-08-03T07:14:39.060Z,57.10
2018-08-03T07:15:39.049Z,57.20
2018-08-03T07:16:39.077Z,57.78
2018-08-03T07:17:39.095Z,56.51
2018-08-03T07:18:39.121Z,56.81
2018-08-03T07:19:39.146Z,56.71
2018-08-03T07:20:39.209Z,56.71
2018-08-03T07:21:39.184Z,56.71
2018-08-03T07:22:39.200Z,57.20
2018-08-03T07:23:39.225Z,56.71
2018-08-03T07:24:39.245Z,57.00
2018-08-03T07:25:39.270Z,56.61
2018-08-03T07:26:39.351Z,56.61
2018-08-03T07:27:39.322Z,56.61
2018-08-03T07:28:39.343Z,56.81
2018-08-03T07:29:39.356Z,57.20
2018-08-03T07:30:39.375Z,57.49
2018-08-03T07:31:39.403Z,56.81
2018-08-03T07:32:39.423Z,57.20
2018-08-03T07:33:39.446Z,56.71
2018-08-03T07:34:39.461Z,56.71
2018-08-03T07:35:39.483Z,56.59
2018-08-03T07:36:39.506Z,56.71
2018-08-03T07:37:39.529Z,56.71
2018-08-03T07:38:39.548Z,56.59
2018-08-03T07:39:39.569Z,56.59
2018-08-03T07:40:39.593Z,56.61
2018-08-03T07:41:39.610Z,56.61
2018-08-03T07:42:39.634Z,57.20
2018-08-03T07:43:39.671Z,57.10
2018-08-03T07:44:39.698Z,56.61
2018-08-03T07:45:39.718Z,57.10
2018-08-03T07:46:39.728Z,56.71
2018-08-03T07:47:39.752Z,56.61
2018-08-03T07:48:39.774Z,56.61
2018-08-03T07:49:39.790Z,56.61
2018-08-03T07:50:39.815Z,56.71
2018-08-03T07:51:39.821Z,57.20
2018-08-03T07:52:39.851Z,57.00
2018-08-03T07:53:39.873Z,56.71
2018-08-03T07:54:39.895Z,56.71
2018-08-03T07:55:39.928Z,56.71
2018-08-03T07:56:39.932Z,56.90
2018-08-03T07:57:39.955Z,56.81
2018-08-03T07:58:39.984Z,56.90
2018-08-03T07:59:40.002Z,57.29
2018-08-03T08:00:40.023Z,56.90
2018-08-03T08:01:40.066Z,57.00
2018-08-03T08:02:40.063Z,56.90
2018-08-03T08:03:40.093Z,56.90
2018-08-03T08:04:40.113Z,57.20
2018-08-03T08:05:40.130Z,57.10
2018-08-03T08:06:40.155Z,57.39
2018-08-03T08:07:40.176Z,57.20
2018-08-03T08:08:40.203Z,57.29
2018-08-03T08:09:40.301Z,57.20
2018-08-03T08:10:40.240Z,57.59
2018-08-03T08:11:40.262Z,57.59
2018-08-03T08:12:40.280Z,57.59
2018-08-03T08:13:40.305Z,57.49
2018-08-03T08:14:40.344Z,57.59
2018-08-03T08:15:40.436Z,57.00
2018-08-03T08:16:40.370Z,57.78
2018-08-03T08:17:40.387Z,57.10
2018-08-03T08:18:40.405Z,57.59
2018-08-03T08:19:40.441Z,57.39
2018-08-03T08:20:40.460Z,57.59
2018-08-03T08:21:40.490Z,57.10
2018-08-03T08:22:40.509Z,57.68
2018-08-03T08:23:40.524Z,57.49
2018-08-03T08:24:40.552Z,57.59
2018-08-03T08:25:40.567Z,57.59
2018-08-03T08:26:40.588Z,57.00
2018-08-03T08:27:40.616Z,57.00
2018-08-03T08:28:40.796Z,57.59
2018-08-03T08:29:40.654Z,57.59
2018-08-03T08:30:40.669Z,57.49
2018-08-03T08:31:40.757Z,57.49
2018-08-03T08:32:40.713Z,57.10
2018-08-03T08:33:40.745Z,57.59
2018-08-03T08:34:40.760Z,57.00
2018-08-03T08:35:40.793Z,57.29
2018-08-03T08:36:40.822Z,57.59
2018-08-03T08:37:40.819Z,57.59
2018-08-03T08:38:40.846Z,57.00
2018-08-03T08:39:40.872Z,57.49
2018-08-03T08:40:40.890Z,57.00
2018-08-03T08:41:40.912Z,57.29
2018-08-03T08:42:40.927Z,57.49
2018-08-03T08:43:41.032Z,57.59
2018-08-03T08:44:40.972Z,57.49
2018-08-03T08:45:41.046Z,57.10
2018-08-03T08:46:41.025Z,57.49
2018-08-03T08:47:41.043Z,57.49
2018-08-03T08:48:41.060Z,57.68
2018-08-03T08:49:41.084Z,57.49
2018-08-03T08:50:41.105Z,57.59
2018-08-03T08:51:41.125Z,57.59
2018-08-03T08:52:41.146Z,57.10
2018-08-03T08:53:41.172Z,57.59
2018-08-03T08:54:41.219Z,57.10
2018-08-03T08:55:41.211Z,57.49
2018-08-03T08:56:41.237Z,57.59
2018-08-03T08:57:41.255Z,57.20
2018-08-03T08:58:41.279Z,57.10
2018-08-03T08:59:41.333Z,57.59
2018-08-03T09:00:41.392Z,57.10
2018-08-03T09:01:41.483Z,57.49
2018-08-03T09:02:41.363Z,57.49
2018-08-03T09:03:41.400Z,57.10
2018-08-03T09:04:41.416Z,57.59
2018-08-03T09:05:41.427Z,57.10
2018-08-03T09:06:41.536Z,57.59
2018-08-03T09:07:41.604Z,57.59
2018-08-03T09:08:41.492Z,57.59
2018-08-03T09:09:41.519Z,57.59
2018-08-03T09:10:41.571Z,57.59
2018-08-03T09:11:41.568Z,57.49
2018-08-03T09:12:41.622Z,57.49
2018-08-03T09:13:41.627Z,57.68
2018-08-03T09:14:41.638Z,57.59
2018-08-03T09:15:41.644Z,57.59
2018-08-03T09:16:41.667Z,57.10
2018-08-03T09:17:41.687Z,57.59
2018-08-03T09:18:41.729Z,57.59
2018-08-03T09:19:41.739Z,57.49
2018-08-03T09:20:41.821Z,57.59
2018-08-03T09:21:41.774Z,57.59
2018-08-03T09:22:41.806Z,56.90
2018-08-03T09:23:41.823Z,57.59
2018-08-03T09:24:41.881Z,57.49
2018-08-03T09:25:41.864Z,57.59
2018-08-03T09:26:41.881Z,57.49
2018-08-03T09:27:41.960Z,57.10
2018-08-03T09:28:41.937Z,57.00
2018-08-03T09:29:41.944Z,57.39
2018-08-03T09:30:41.975Z,57.49
2018-08-03T09:31:41.988Z,57.59
2018-08-03T09:32:42.019Z,57.49
2018-08-03T09:33:42.052Z,57.59
2018-08-03T09:34:42.056Z,57.68
2018-08-03T09:35:42.077Z,57.59
2018-08-03T09:36:42.096Z,57.65
2018-08-03T09:37:42.130Z,57.39
2018-08-03T09:38:42.138Z,57.68
2018-08-03T09:39:42.174Z,57.59
2018-08-03T09:40:42.185Z,57.59
2018-08-03T09:41:42.210Z,57.59
2018-08-03T09:42:42.233Z,57.10
2018-08-03T09:43:42.252Z,57.59
2018-08-03T09:44:42.269Z,57.20
2018-08-03T09:45:42.299Z,57.56
2018-08-03T09:46:42.316Z,57.49
2018-08-03T09:47:42.337Z,57.00
2018-08-03T09:48:42.360Z,57.59
2018-08-03T09:49:42.381Z,57.20
2018-08-03T09:50:42.419Z,57.59
2018-08-03T09:51:42.425Z,57.20
2018-08-03T09:52:42.443Z,57.59
2018-08-03T09:53:42.470Z,57.10
2018-08-03T09:54:42.483Z,57.59
2018-08-03T09:55:42.511Z,57.29
2018-08-03T09:56:42.530Z,57.68
2018-08-03T09:57:42.552Z,57.59
2018-08-03T09:58:42.570Z,57.20
2018-08-03T09:59:42.603Z,57.10
2018-08-03T10:00:42.629Z,57.10
2018-08-03T10:01:42.652Z,57.29
2018-08-03T10:02:42.659Z,57.10
2018-08-03T10:03:42.692Z,57.00
2018-08-03T10:04:42.702Z,57.10
2018-08-03T10:05:42.723Z,57.29
2018-08-03T10:06:42.761Z,57.29
2018-08-03T10:07:42.769Z,57.00
2018-08-03T10:08:42.787Z,57.68
2018-08-03T10:09:42.807Z,57.59
2018-08-03T10:10:42.830Z,57.68
2018-08-03T10:11:42.853Z,57.59
2018-08-03T10:12:42.876Z,57.59
2018-08-03T10:13:42.888Z,57.59
2018-08-03T10:14:42.926Z,57.68
2018-08-03T10:15:42.935Z,57.59
2018-08-03T10:16:42.959Z,57.59
2018-08-03T10:17:43.005Z,57.59
2018-08-03T10:18:43.001Z,57.10
2018-08-03T10:19:43.026Z,56.97
2018-08-03T10:20:43.062Z,57.59
2018-08-03T10:21:43.083Z,57.68
2018-08-03T10:22:43.088Z,57.10
2018-08-03T10:23:43.100Z,57.59
2018-08-03T10:24:43.131Z,57.59
2018-08-03T10:25:43.157Z,57.49
2018-08-03T10:26:43.181Z,57.59
2018-08-03T10:27:43.193Z,57.59
2018-08-03T10:28:43.220Z,57.59
2018-08-03T10:29:43.248Z,57.59
2018-08-03T10:30:43.314Z,57.56
2018-08-03T10:31:43.287Z,57.10
2018-08-03T10:32:43.311Z,57.68
2018-08-03T10:33:43.328Z,57.10
2018-08-03T10:34:43.352Z,57.20
2018-08-03T10:35:43.371Z,57.59
2018-08-03T10:36:43.389Z,57.78
2018-08-03T10:37:43.412Z,57.49
2018-08-03T10:38:43.438Z,57.10
2018-08-03T10:39:43.515Z,57.59
2018-08-03T10:40:43.476Z,57.39
2018-08-03T10:41:43.511Z,57.59
2018-08-03T10:42:43.535Z,57.29
2018-08-03T10:43:43.559Z,57.10
2018-08-03T10:44:43.563Z,57.59
2018-08-03T10:45:43.582Z,57.59
2018-08-03T10:46:43.606Z,57.10
2018-08-03T10:47:43.630Z,57.59
2018-08-03T10:48:43.684Z,57.59
2018-08-03T10:49:43.680Z,57.10
2018-08-03T10:50:43.706Z,57.20
2018-08-03T10:51:43.718Z,57.49
2018-08-03T10:52:43.736Z,57.20
2018-08-03T10:53:43.760Z,57.87
2018-08-03T10:54:43.781Z,57.20
2018-08-03T10:55:43.804Z,57.10
2018-08-03T10:56:43.830Z,57.20
2018-08-03T10:57:43.849Z,57.00
2018-08-03T10:58:43.864Z,57.00
2018-08-03T10:59:43.888Z,57.20
2018-08-03T11:00:43.906Z,57.59
2018-08-03T11:01:43.953Z,57.00
2018-08-03T11:02:43.943Z,57.00
2018-08-03T11:03:43.981Z,56.90
2018-08-03T11:04:43.999Z,57.10
2018-08-03T11:05:44.011Z,57.00
2018-08-03T11:06:44.054Z,57.00
2018-08-03T11:07:44.070Z,57.00
2018-08-03T11:08:44.092Z,56.90
2018-08-03T11:09:44.107Z,56.90
2018-08-03T11:10:44.136Z,56.71
2018-08-03T11:11:44.152Z,57.20
2018-08-03T11:12:44.169Z,56.81
2018-08-03T11:13:44.303Z,57.00
2018-08-03T11:14:44.216Z,57.59
2018-08-03T11:15:44.236Z,57.00
2018-08-03T11:16:44.260Z,57.00
2018-08-03T11:17:44.281Z,56.81
2018-08-03T11:18:44.299Z,57.00
2018-08-03T11:19:44.329Z,56.71
2018-08-03T11:20:44.345Z,57.00
2018-08-03T11:21:44.366Z,56.71
2018-08-03T11:22:44.445Z,56.71
2018-08-03T11:23:44.411Z,57.10
2018-08-03T11:24:44.440Z,56.90
2018-08-03T11:25:44.446Z,57.20
2018-08-03T11:26:44.471Z,56.81
2018-08-03T11:27:44.494Z,56.81
2018-08-03T11:28:44.518Z,56.71
2018-08-03T11:29:44.586Z,56.81
2018-08-03T11:30:44.558Z,56.61
2018-08-03T11:31:44.583Z,57.59
2018-08-03T11:32:44.598Z,56.71
2018-08-03T11:33:44.620Z,56.81
2018-08-03T11:34:44.633Z,56.81
2018-08-03T11:35:44.668Z,56.61
2018-08-03T11:36:44.685Z,57.10
2018-08-03T11:37:44.711Z,56.71
2018-08-03T11:38:44.727Z,57.10
2018-08-03T11:39:44.837Z,56.71
2018-08-03T11:40:44.784Z,56.71
2018-08-03T11:41:44.787Z,56.90
2018-08-03T11:42:44.820Z,56.81
2018-08-03T11:43:44.835Z,56.71
2018-08-03T11:44:44.861Z,56.81
2018-08-03T11:45:44.881Z,56.71
2018-08-03T11:46:44.904Z,57.59
2018-08-03T11:47:44.925Z,56.81
2018-08-03T11:48:44.954Z,56.90
2018-08-03T11:49:44.971Z,56.61
2018-08-03T11:50:44.991Z,56.90
2018-08-03T11:51:45.012Z,56.71
2018-08-03T11:52:45.051Z,56.71
2018-08-03T11:53:45.061Z,56.90
2018-08-03T11:54:45.090Z,57.49
2018-08-03T11:55:45.098Z,56.71
2018-08-03T11:56:45.120Z,56.61
2018-08-03T11:57:45.141Z,57.29
2018-08-03T11:58:45.252Z,56.61
2018-08-03T11:59:45.223Z,57.49
2018-08-03T12:00:45.224Z,56.71
2018-08-03T12:01:45.281Z,56.81
2018-08-03T12:02:45.253Z,56.61
2018-08-03T12:03:45.267Z,57.49
2018-08-03T12:04:45.294Z,56.81
2018-08-03T12:05:45.313Z,56.61
2018-08-03T12:06:45.332Z,57.39
2018-08-03T12:07:45.397Z,56.81
2018-08-03T12:08:45.373Z,57.39
2018-08-03T12:09:45.408Z,56.71
2018-08-03T12:10:45.414Z,56.61
2018-08-03T12:11:45.446Z,56.71
2018-08-03T12:12:45.471Z,56.71
2018-08-03T12:13:45.483Z,56.61
2018-08-03T12:14:45.505Z,56.71
2018-08-03T12:15:45.531Z,56.61
2018-08-03T12:16:45.550Z,56.81
2018-08-03T12:17:45.625Z,56.90
2018-08-03T12:18:45.600Z,57.10
2018-08-03T12:19:45.615Z,57.29
2018-08-03T12:20:45.637Z,57.29
2018-08-03T12:21:45.699Z,57.49
2018-08-03T12:22:45.684Z,58.17
2018-08-03T12:23:45.761Z,57.49
2018-08-03T12:24:45.715Z,57.49
2018-08-03T12:25:45.757Z,57.20
2018-08-03T12:26:45.764Z,57.00
2018-08-03T12:27:45.790Z,57.49
2018-08-03T12:28:45.807Z,57.59
2018-08-03T12:29:45.846Z,57.00
2018-08-03T12:30:45.858Z,56.90
2018-08-03T12:31:45.868Z,57.49
2018-08-03T12:32:45.904Z,57.10
2018-08-03T12:33:45.918Z,56.90
2018-08-03T12:34:45.940Z,57.10
2018-08-03T12:35:45.965Z,57.10
2018-08-03T12:36:45.987Z,56.90
2018-08-03T12:37:46.002Z,57.20
2018-08-03T12:38:46.023Z,58.07
2018-08-03T12:39:46.053Z,56.90
2018-08-03T12:40:46.075Z,57.00
2018-08-03T12:41:46.090Z,57.00
2018-08-03T12:42:46.121Z,57.12
2018-08-03T12:43:46.139Z,57.29
2018-08-03T12:44:46.158Z,57.39
2018-08-03T12:45:46.175Z,57.49
2018-08-03T12:46:46.207Z,57.20
2018-08-03T12:47:46.219Z,57.49
2018-08-03T12:48:46.237Z,57.49
2018-08-03T12:49:46.262Z,57.59
2018-08-03T12:50:46.287Z,57.29
2018-08-03T12:51:46.311Z,57.49
2018-08-03T12:52:46.360Z,57.78